Time;durP1;ratioP1;P1;durP2;ratioP2;P2;SDS_P1;SDS_P2;PMS_P1;PMS_P2;Temp;Humidity;BMP_temperature;BMP_pressure;BME280_temperature;BME280_humidity;BME280_pressure;Samples;Min_cycle;Max_cycle;Signal;HPM_P1;HPM_P2
2022/11/25 00:00:04;;;;;;;18.65;4.03;;;;;;;;;;5045480;28;20774;-71
2022/11/25 00:02:30;;;;;;;15.57;4.75;;;;;;;;;;5033338;28;20423;-71
2022/11/25 00:04:56;;;;;;;15.10;4.30;;;;;;;;;;5033945;28;20515;-71
2022/11/25 00:07:22;;;;;;;16.35;3.97;;;;;;;;;;5036244;28;20406;-71
2022/11/25 00:09:48;;;;;;;19.20;4.85;;;;;;;;;;5033622;28;20407;-70
2022/11/25 00:12:14;;;;;;;21.05;4.43;;;;;;;;;;5035231;28;20431;-71
2022/11/25 00:14:40;;;;;;;16.75;4.05;;;;;;;;;;5036060;28;20427;-69
2022/11/25 00:17:06;;;;;;;16.15;4.65;;;;;;;;;;5028265;28;20441;-69
2022/11/25 00:19:32;;;;;;;18.90;4.75;;;;;;;;;;5035792;28;20412;-70
2022/11/25 00:21:58;;;;;;;15.48;4.00;;;;;;;;;;5026313;28;20430;-70
2022/11/25 00:24:24;;;;;;;13.67;4.57;;;;;;;;;;5070233;28;20407;-70
2022/11/25 00:26:50;;;;;;;19.13;4.90;;;;;;;;;;5050997;28;20507;-70
2022/11/25 00:29:16;;;;;;;21.52;5.15;;;;;;;;;;5053738;28;20525;-70
2022/11/25 00:31:43;;;;;;;18.53;4.80;;;;;;;;;;5072595;28;20450;-70
2022/11/25 00:34:11;;;;;;;19.42;4.82;;;;;;;;;;5055255;28;20449;-70
2022/11/25 00:36:37;;;;;;;18.05;4.82;;;;;;;;;;5037733;28;20417;-70
2022/11/25 00:39:05;;;;;;;19.07;4.53;;;;;;;;;;5020524;28;20420;-70
2022/11/25 00:44:35;;;;;;;16.13;4.90;;;;;;;;;;5049936;28;20426;-70
2022/11/25 00:47:09;;;;;;;16.98;5.22;;;;;;;;;;5051277;28;20494;-70
2022/11/25 00:49:35;;;;;;;16.95;4.40;;;;;;;;;;5051778;28;20424;-71
2022/11/25 00:52:02;;;;;;;18.02;4.18;;;;;;;;;;5052303;28;20455;-71
2022/11/25 00:54:28;;;;;;;22.08;4.70;;;;;;;;;;5037881;28;20716;-70
2022/11/25 00:56:54;;;;;;;15.85;4.85;;;;;;;;;;5052374;28;20423;-70
2022/11/25 00:59:20;;;;;;;21.77;5.25;;;;;;;;;;5052889;28;20424;-70
2022/11/25 01:01:46;;;;;;;13.57;4.30;;;;;;;;;;5035008;28;20428;-70
2022/11/25 01:04:13;;;;;;;17.30;4.67;;;;;;;;;;5051589;28;20567;-70
2022/11/25 01:06:39;;;;;;;17.70;5.38;;;;;;;;;;5038310;28;20399;-70
2022/11/25 01:09:05;;;;;;;17.63;5.07;;;;;;;;;;5035532;28;20428;-71
2022/11/25 01:11:31;;;;;;;16.30;4.38;;;;;;;;;;5035605;28;20424;-71
2022/11/25 01:13:58;;;;;;;20.73;5.07;;;;;;;;;;5037041;28;20400;-71
2022/11/25 01:16:24;;;;;;;18.50;4.75;;;;;;;;;;5051295;28;20434;-71
2022/11/25 01:18:50;;;;;;;17.48;5.03;;;;;;;;;;5036627;28;20423;-71
2022/11/25 01:21:21;;;;;;;16.98;4.63;;;;;;;;;;5052259;28;20994;-71
2022/11/25 01:23:50;;;;;;;19.75;5.13;;;;;;;;;;5053257;28;20419;-71
2022/11/25 01:26:21;;;;;;;16.30;4.35;;;7.50;99.90;;;;;;5069752;28;20427;-71
2022/11/25 01:28:48;;;;;;;18.13;4.68;;;;;;;;;;5053479;28;20477;-71
2022/11/25 01:31:15;;;;;;;17.98;5.50;;;;;;;;;;5022746;28;20413;-71
2022/11/25 01:33:42;;;;;;;21.80;5.07;;;;;;;;;;5034716;28;20821;-71
2022/11/25 01:36:10;;;;;;;17.13;4.70;;;;;;;;;;5043765;28;20415;-71
2022/11/25 01:38:36;;;;;;;16.08;4.60;;;;;;;;;;5053255;28;20423;-72
2022/11/25 01:41:03;;;;;;;16.83;4.38;;;7.50;99.90;;;;;;5049987;28;20421;-71
2022/11/25 01:43:29;;;;;;;19.90;4.85;;;;;;;;;;5050232;28;20427;-71
2022/11/25 01:46:19;;;;;;;22.40;5.43;;;;;;;;;;5069703;28;20420;-71
2022/11/25 01:48:50;;;;;;;21.10;4.72;;;;;;;;;;4996444;28;20418;-72
2022/11/25 01:51:28;;;;;;;16.70;4.60;;;;;;;;;;5043971;28;20420;-71
2022/11/25 01:53:59;;;;;;;16.08;4.75;;;;;;;;;;5041941;28;20880;-69
2022/11/25 01:56:26;;;;;;;19.30;4.45;;;;;;;;;;5050274;28;20929;-72
2022/11/25 01:58:53;;;;;;;20.42;4.95;;;;;;;;;;5051094;28;20427;-72
2022/11/25 02:01:20;;;;;;;16.58;4.80;;;;;;;;;;5053148;28;20406;-70
2022/11/25 02:03:48;;;;;;;21.25;5.18;;;;;;;;;;5044667;28;20416;-71
2022/11/25 02:06:35;;;;;;;19.88;5.25;;;;;;;;;;5054488;28;20404;-71
2022/11/25 02:09:05;;;;;;;24.08;4.60;;;7.60;99.90;;;;;;5050392;28;20411;-71
2022/11/25 02:11:32;;;;;;;24.75;5.05;;;;;;;;;;5034351;28;20817;-71
2022/11/25 02:13:59;;;;;;;21.93;5.03;;;;;;;;;;5050940;28;20442;-70
2022/11/25 02:16:25;;;;;;;20.27;5.15;;;;;;;;;;5054383;28;20794;-70
2022/11/25 02:18:51;;;;;;;18.75;5.03;;;;;;;;;;5051460;28;20418;-71
2022/11/25 02:21:20;;;;;;;21.80;5.18;;;;;;;;;;5051844;28;20503;-71
2022/11/25 02:23:49;;;;;;;20.08;4.88;;;;;;;;;;5048528;28;20443;-70
2022/11/25 02:26:15;;;;;;;20.60;5.57;;;;;;;;;;5030825;28;20944;-71
2022/11/25 02:28:41;;;;;;;24.10;5.38;;;;;;;;;;5050506;28;20397;-70
2022/11/25 02:31:08;;;;;;;18.88;5.18;;;;;;;;;;5046764;28;20424;-70
2022/11/25 02:33:34;;;;;;;19.92;5.18;;;;;;;;;;5042269;28;20793;-70
2022/11/25 02:36:02;;;;;;;21.27;5.35;;;;;;;;;;5033229;28;20766;-71
2022/11/25 02:38:40;;;;;;;21.83;6.78;;;;;;;;;;5048655;28;20421;-71
2022/11/25 02:41:16;;;;;;;19.08;5.70;;;;;;;;;;5047550;28;20448;-71
2022/11/25 02:43:42;;;;;;;19.90;5.50;;;;;;;;;;5045919;28;20421;-71
2022/11/25 02:46:10;;;;;;;19.38;5.90;;;;;;;;;;5016535;28;20419;-71
2022/11/25 02:48:37;;;;;;;21.20;5.43;;;;;;;;;;5037614;28;20504;-71
2022/11/25 02:51:03;;;;;;;28.13;6.35;;;;;;;;;;5048263;28;20427;-71
2022/11/25 02:53:29;;;;;;;22.23;5.70;;;;;;;;;;5029965;28;20455;-71
2022/11/25 02:55:55;;;;;;;20.02;5.50;;;;;;;;;;5047224;28;20433;-71
2022/11/25 02:58:22;;;;;;;20.08;6.00;;;;;;;;;;5049202;28;20416;-71
2022/11/25 03:00:48;;;;;;;25.25;6.07;;;;;;;;;;5048996;28;20425;-71
2022/11/25 03:03:14;;;;;;;20.90;6.07;;;;;;;;;;5032315;28;20428;-71
2022/11/25 03:05:40;;;;;;;25.03;6.47;;;;;;;;;;5045876;28;20453;-71
2022/11/25 03:08:07;;;;;;;20.50;6.13;;;;;;;;;;5045974;28;20440;-71
2022/11/25 03:10:33;;;;;;;19.08;5.82;;;;;;;;;;5030441;28;20475;-71
2022/11/25 03:12:59;;;;;;;21.80;6.50;;;;;;;;;;5046581;28;20430;-72
2022/11/25 03:15:26;;;;;;;24.85;6.55;;;;;;;;;;5048676;28;20796;-71
2022/11/25 03:17:52;;;;;;;24.67;6.13;;;;;;;;;;5050128;28;20405;-71
2022/11/25 03:20:19;;;;;;;23.30;6.93;;;;;;;;;;5030921;28;20429;-71
2022/11/25 03:22:45;;;;;;;25.08;6.72;;;;;;;;;;5045743;28;20429;-71
2022/11/25 03:25:12;;;;;;;21.25;7.82;;;;;;;;;;5047656;28;20424;-71
2022/11/25 03:27:38;;;;;;;25.55;7.20;;;;;;;;;;5032071;28;20421;-71
2022/11/25 03:30:05;;;;;;;21.83;7.53;;;;;;;;;;5043222;28;20421;-71
2022/11/25 03:32:31;;;;;;;20.83;7.13;;;;;;;;;;5049868;28;20401;-71
2022/11/25 03:34:57;;;;;;;21.52;7.65;;;;;;;;;;5012978;28;20968;-71
2022/11/25 03:37:23;;;;;;;30.20;7.70;;;;;;;;;;5010591;28;20752;-71
2022/11/25 03:39:49;;;;;;;27.30;7.57;;;;;;;;;;5031231;28;20781;-71
2022/11/25 03:42:16;;;;;;;44.47;10.27;;;;;;;;;;5049304;28;20429;-71
2022/11/25 03:44:42;;;;;;;26.55;8.80;;;;;;;;;;5053793;28;20397;-71
2022/11/25 03:47:08;;;;;;;27.13;8.52;;;;;;;;;;5041241;28;20548;-71
2022/11/25 03:49:34;;;;;;;26.42;8.90;;;;;;;;;;5043674;28;21416;-71
2022/11/25 03:52:00;;;;;;;28.08;8.85;;;;;;;;;;5033908;28;20816;-71
2022/11/25 03:54:26;;;;;;;24.92;8.82;;;;;;;;;;5023822;28;20511;-71
2022/11/25 03:56:52;;;;;;;26.45;9.38;;;;;;;;;;5050411;28;20426;-71
2022/11/25 03:59:18;;;;;;;25.27;9.60;;;;;;;;;;5034686;28;20425;-72
2022/11/25 04:01:44;;;;;;;26.67;9.27;;;;;;;;;;5038178;28;20467;-70
2022/11/25 04:04:10;;;;;;;96.72;14.65;;;;;;;;;;5044783;28;20797;-71
2022/11/25 04:06:38;;;;;;;26.40;10.13;;;;;;;;;;5033752;28;20421;-71
2022/11/25 04:09:04;;;;;;;34.25;10.05;;;;;;;;;;5034508;28;20397;-71
2022/11/25 04:14:17;;;;;;;28.45;9.88;;;;;;;;;;4997077;28;20426;-71
2022/11/25 04:16:43;;;;;;;28.33;11.10;;;;;;;;;;5040908;28;20421;-71
2022/11/25 04:19:09;;;;;;;30.73;10.88;;;;;;;;;;5053158;28;20469;-72
2022/11/25 04:21:35;;;;;;;29.08;10.18;;;;;;;;;;5048312;28;20413;-72
2022/11/25 04:24:02;;;;;;;26.00;10.80;;;;;;;;;;5049861;28;20425;-72
2022/11/25 04:26:28;;;;;;;29.30;10.57;;;;;;;;;;5043310;28;21213;-73
2022/11/25 04:28:54;;;;;;;26.77;10.20;;;;;;;;;;5050460;28;20421;-72
2022/11/25 04:31:20;;;;;;;26.05;10.30;;;;;;;;;;5022824;28;20484;-72
2022/11/25 04:33:46;;;;;;;28.10;10.45;;;;;;;;;;5052198;28;20510;-72
2022/11/25 04:36:12;;;;;;;27.52;10.07;;;;;;;;;;5051742;28;20827;-72
2022/11/25 04:38:39;;;;;;;27.35;10.02;;;;;;;;;;5049935;28;20940;-72
2022/11/25 04:41:05;;;;;;;24.10;9.60;;;;;;;;;;5049543;28;20417;-72
2022/11/25 04:43:31;;;;;;;26.88;10.50;;;;;;;;;;5029469;28;20423;-71
2022/11/25 04:45:58;;;;;;;27.23;10.63;;;;;;;;;;5032787;28;20406;-72
2022/11/25 04:48:24;;;;;;;28.65;10.75;;;;;;;;;;5042595;28;20417;-72
2022/11/25 04:50:50;;;;;;;31.75;10.70;;;;;;;;;;5050781;28;20429;-72
2022/11/25 04:53:16;;;;;;;27.73;9.60;;;;;;;;;;5049139;28;20818;-72
2022/11/25 04:55:42;;;;;;;31.23;12.60;;;;;;;;;;5035969;28;20488;-72
2022/11/25 04:58:10;;;;;;;25.20;9.68;;;;;;;;;;5049139;28;20417;-72
2022/11/25 05:00:36;;;;;;;26.92;9.65;;;;;;;;;;5049395;28;20463;-72
2022/11/25 05:03:02;;;;;;;29.92;10.40;;;;;;;;;;5047712;28;20429;-71
2022/11/25 05:05:28;;;;;;;25.77;9.48;;;;;;;;;;5050490;28;20426;-71
2022/11/25 05:07:54;;;;;;;31.23;10.52;;;;;;;;;;5050629;28;20427;-71
2022/11/25 05:10:20;;;;;;;30.75;10.57;;;;;;;;;;5034673;28;20425;-71
2022/11/25 05:12:46;;;;;;;25.60;9.73;;;;;;;;;;5028281;28;20429;-71
2022/11/25 05:15:12;;;;;;;26.98;9.90;;;;;;;;;;5048611;28;20421;-71
2022/11/25 05:17:39;;;;;;;27.48;9.95;;;;;;;;;;5031973;28;20417;-71
2022/11/25 05:20:05;;;;;;;30.77;10.82;;;;;;;;;;5048849;28;20500;-71
2022/11/25 05:22:32;;;;;;;31.23;10.30;;;;;;;;;;5034555;28;20476;-71
2022/11/25 05:24:58;;;;;;;26.75;10.10;;;;;;;;;;5050906;28;20417;-72
2022/11/25 05:27:25;;;;;;;25.10;10.02;;;;;;;;;;5032861;28;20411;-72
2022/11/25 05:29:51;;;;;;;30.83;10.85;;;;;;;;;;5028989;28;20430;-72
2022/11/25 05:32:17;;;;;;;25.42;10.48;;;;;;;;;;5013869;28;20427;-71
2022/11/25 05:34:43;;;;;;;31.52;11.45;;;;;;;;;;5028997;28;20748;-71
2022/11/25 05:37:11;;;;;;;30.15;10.15;;;;;;;;;;5010881;28;20767;-72
2022/11/25 05:39:37;;;;;;;30.67;11.43;;;;;;;;;;5017222;28;20426;-72
2022/11/25 05:42:03;;;;;;;27.83;11.27;;;;;;;;;;5028226;28;20423;-72
2022/11/25 05:44:29;;;;;;;28.40;10.63;;;;;;;;;;5029844;28;20787;-72
2022/11/25 05:46:55;;;;;;;32.42;11.38;;;;;;;;;;5031471;28;20414;-72
2022/11/25 05:49:21;;;;;;;33.40;11.82;;;;;;;;;;5029967;28;20419;-72
2022/11/25 05:51:47;;;;;;;27.23;10.13;;;;;;;;;;5026537;28;20432;-72
2022/11/25 05:54:13;;;;;;;26.20;10.10;;;;;;;;;;5027923;28;20427;-72
2022/11/25 05:56:39;;;;;;;27.65;10.30;;;;;;;;;;5029069;28;20788;-72
2022/11/25 05:59:06;;;;;;;25.02;10.50;;;;;;;;;;5029641;28;20961;-72
2022/11/25 06:01:32;;;;;;;23.63;10.07;;;;;;;;;;5027917;28;20782;-72
2022/11/25 06:03:59;;;;;;;30.02;10.48;;;;;;;;;;5014448;28;20465;-72
2022/11/25 06:06:26;;;;;;;22.60;9.80;;;;;;;;;;5027221;28;20502;-72
2022/11/25 06:08:52;;;;;;;25.77;10.18;;;;;;;;;;5028932;28;20422;-72
2022/11/25 06:11:18;;;;;;;37.25;11.55;;;;;;;;;;5028927;28;20910;-72
2022/11/25 06:13:44;;;;;;;37.83;11.30;;;;;;;;;;5030894;28;20407;-72
2022/11/25 06:16:11;;;;;;;60.17;12.20;;;;;;;;;;5011276;28;20859;-72
2022/11/25 06:18:38;;;;;;;24.08;9.82;;;;;;;;;;5014670;28;20403;-73
2022/11/25 06:21:05;;;;;;;57.83;12.50;;;;;;;;;;5012078;28;20437;-72
2022/11/25 06:23:31;;;;;;;26.15;9.77;;;;;;;;;;5012797;28;20434;-73
2022/11/25 06:26:09;;;;;;;38.13;10.25;;;8.50;99.90;;;;;;5031857;28;20482;-72
2022/11/25 06:28:35;;;;;;;20.80;9.18;;;;;;;;;;5050574;28;20435;-73
2022/11/25 06:31:06;;;;;;;20.90;8.97;;;;;;;;;;5031013;28;20501;-73
2022/11/25 06:33:32;;;;;;;43.60;11.55;;;;;;;;;;5033254;28;20424;-73
2022/11/25 06:35:58;;;;;;;54.50;11.23;;;;;;;;;;5044652;28;20430;-73
2022/11/25 06:38:24;;;;;;;26.25;9.82;;;;;;;;;;5014971;28;20566;-73
2022/11/25 06:40:50;;;;;;;49.70;10.82;;;;;;;;;;5030855;28;20955;-74
2022/11/25 06:43:16;;;;;;;41.60;11.90;;;;;;;;;;5047202;28;20782;-74
2022/11/25 06:45:42;;;;;;;23.02;8.10;;;;;;;;;;5050113;28;20967;-73
2022/11/25 06:48:08;;;;;;;22.13;8.17;;;;;;;;;;5016503;28;20426;-73
2022/11/25 06:50:34;;;;;;;24.33;9.45;;;;;;;;;;5033787;28;20429;-73
2022/11/25 06:53:01;;;;;;;22.30;8.80;;;;;;;;;;5040812;28;20429;-73
2022/11/25 06:55:27;;;;;;;22.08;7.93;;;;;;;;;;5048447;28;20421;-73
2022/11/25 06:57:53;;;;;;;16.83;6.30;;;;;;;;;;5032167;28;20420;-74
2022/11/25 07:00:20;;;;;;;16.10;6.55;;;;;;;;;;5033731;28;20460;-73
2022/11/25 07:02:46;;;;;;;25.10;8.70;;;;;;;;;;5030787;28;20427;-73
2022/11/25 07:05:12;;;;;;;19.40;6.82;;;;;;;;;;5031074;28;20417;-73
2022/11/25 07:07:38;;;;;;;16.85;6.75;;;;;;;;;;5043371;28;20483;-73
2022/11/25 07:10:04;;;;;;;16.63;6.00;;;;;;;;;;5027909;28;20453;-72
2022/11/25 07:12:31;;;;;;;18.52;6.30;;;;;;;;;;5018521;28;20489;-72
2022/11/25 07:14:57;;;;;;;17.65;6.03;;;;;;;;;;5029067;28;20899;-72
2022/11/25 07:17:23;;;;;;;18.30;5.75;;;;;;;;;;5009018;28;20963;-72
2022/11/25 07:19:49;;;;;;;13.23;5.40;;;;;;;;;;5018412;28;20425;-72
2022/11/25 07:22:15;;;;;;;15.48;5.90;;;;;;;;;;5049646;28;20425;-73
2022/11/25 07:24:41;;;;;;;16.83;6.20;;;;;;;;;;5049726;28;20425;-73
2022/11/25 07:27:07;;;;;;;16.85;6.15;;;;;;;;;;5047525;28;20429;-73
2022/11/25 07:29:34;;;;;;;15.38;5.70;;;;;;;;;;5016305;28;20421;-73
2022/11/25 07:32:01;;;;;;;20.85;6.45;;;;;;;;;;5043617;28;20524;-73
2022/11/25 07:34:27;;;;;;;13.77;5.45;;;;;;;;;;5043074;28;20916;-73
2022/11/25 07:36:53;;;;;;;16.27;6.18;;;;;;;;;;5022218;28;22483;-73
2022/11/25 07:39:20;;;;;;;20.08;6.15;;;8.10;99.90;;;;;;5031614;28;20467;-73
2022/11/25 07:41:49;;;;;;;19.85;5.65;;;;;;;;;;5055770;28;20479;-73
2022/11/25 07:44:15;;;;;;;16.63;5.85;;;;;;;;;;5044685;28;20463;-73
2022/11/25 07:46:43;;;;;;;21.48;6.50;;;;;;;;;;5032864;28;20413;-73
2022/11/25 07:49:13;;;;;;;17.85;5.93;;;;;;;;;;5040757;28;20835;-73
2022/11/25 07:51:59;;;;;;;16.17;5.55;;;;;;;;;;5025870;28;20934;-73
2022/11/25 07:54:25;;;;;;;14.87;5.50;;;;;;;;;;5047841;28;20525;-73
2022/11/25 07:56:52;;;;;;;15.07;5.45;;;;;;;;;;5050164;28;20424;-73
2022/11/25 07:59:19;;;;;;;15.85;5.90;;;;;;;;;;5047709;28;20429;-72
2022/11/25 08:01:45;;;;;;;15.18;5.35;;;;;;;;;;5025064;28;20471;-72
2022/11/25 08:04:13;;;;;;;16.83;5.50;;;;;;;;;;5038999;28;20433;-72
2022/11/25 08:06:42;;;;;;;14.85;5.70;;;8.10;99.90;;;;;;5039344;28;20785;-72
2022/11/25 08:09:09;;;;;;;14.30;5.45;;;7.70;99.90;;;;;;5024178;28;20429;-73
2022/11/25 08:11:35;;;;;;;18.58;5.72;;;;;;;;;;5045735;28;20761;-73
2022/11/25 08:14:01;;;;;;;17.00;5.15;;;;;;;;;;5050895;28;20432;-73
2022/11/25 08:16:30;;;;;;;13.55;5.47;;;;;;;;;;5043662;28;20936;-73
2022/11/25 08:18:56;;;;;;;15.55;5.88;;;;;;;;;;5047279;28;20432;-73
2022/11/25 08:21:23;;;;;;;14.85;5.80;;;;;;;;;;5047556;28;20425;-73
2022/11/25 08:23:51;;;;;;;16.52;6.10;;;;;;;;;;5050756;28;20437;-73
2022/11/25 08:26:31;;;;;;;13.88;5.50;;;;;;;;;;5047991;28;20425;-74
2022/11/25 08:28:57;;;;;;;15.55;5.25;;;;;;;;;;5030448;28;20421;-74
2022/11/25 08:31:25;;;;;;;15.30;5.68;;;;;;;;;;5026995;28;20456;-74
2022/11/25 08:33:51;;;;;;;14.77;5.50;;;;;;;;;;5050343;28;20812;-74
2022/11/25 08:36:17;;;;;;;16.83;6.18;;;;;;;;;;5047694;28;20503;-73
2022/11/25 08:38:45;;;;;;;11.00;5.00;;;;;;;;;;5027388;28;20427;-73
2022/11/25 08:41:12;;;;;;;13.48;5.50;;;;;;;;;;5045710;28;20460;-73
2022/11/25 08:43:39;;;;;;;13.80;5.80;;;;;;;;;;5047089;28;20425;-73
2022/11/25 08:46:13;;;;;;;13.85;5.43;;;;;;;;;;5031905;28;20417;-73
2022/11/25 08:48:39;;;;;;;62.90;12.00;;;;;;;;;;5043457;28;20422;-73
2022/11/25 08:51:09;;;;;;;15.77;5.90;;;;;;;;;;5049619;28;20417;-73
2022/11/25 08:53:35;;;;;;;11.93;5.60;;;;;;;;;;5043617;28;20429;-73
2022/11/25 08:56:01;;;;;;;13.10;5.65;;;;;;;;;;5050100;28;20419;-74
2022/11/25 08:58:27;;;;;;;18.35;7.15;;;;;;;;;;5050303;28;20475;-73
2022/11/25 09:00:53;;;;;;;16.40;6.03;;;;;;;;;;5012057;28;20440;-73
2022/11/25 09:03:19;;;;;;;12.25;5.30;;;;;;;;;;5044533;28;20457;-73
2022/11/25 09:05:45;;;;;;;15.60;6.20;;;;;;;;;;5049293;28;20421;-74
2022/11/25 09:08:12;;;;;;;13.27;5.60;;;;;;;;;;5051222;28;20421;-74
2022/11/25 09:10:39;;;;;;;13.23;5.57;;;;;;;;;;5050276;28;20798;-73
2022/11/25 09:13:05;;;;;;;15.93;7.00;;;;;;;;;;5047318;28;20417;-73
2022/11/25 09:15:31;;;;;;;12.57;5.60;;;;;;;;;;5034963;28;20457;-74
2022/11/25 09:17:58;;;;;;;12.10;5.50;;;;;;;;;;5026636;28;20481;-74
2022/11/25 09:20:24;;;;;;;13.10;5.75;;;;;;;;;;5044089;28;20421;-74
2022/11/25 09:22:51;;;;;;;11.90;5.57;;;;;;;;;;5033527;28;20432;-74
2022/11/25 09:25:17;;;;;;;12.73;5.63;;;;;;;;;;5029852;28;20424;-74
2022/11/25 09:27:43;;;;;;;14.57;5.53;;;;;;;;;;5012124;28;20428;-74
2022/11/25 09:30:09;;;;;;;16.10;5.78;;;;;;;;;;5021643;28;20458;-74
2022/11/25 09:32:35;;;;;;;10.90;5.05;;;;;;;;;;5021753;28;20997;-75
2022/11/25 09:35:01;;;;;;;12.07;5.30;;;;;;;;;;5026178;28;20481;-74
2022/11/25 09:37:27;;;;;;;13.77;5.40;;;;;;;;;;5029652;28;20423;-74
2022/11/25 09:39:54;;;;;;;10.50;5.07;;;;;;;;;;5010723;28;20427;-75
2022/11/25 09:48:05;;;;;;;11.93;4.60;;;;;;;;;;5024324;28;20435;-75
2022/11/25 09:50:46;;;;;;;12.32;4.75;;;;;;;;;;5007781;28;20427;-74
2022/11/25 09:53:16;;;;;;;11.52;4.45;;;;;;;;;;5020667;28;20930;-74
2022/11/25 09:55:44;;;;;;;13.13;4.90;;;;;;;;;;5026808;28;20983;-72
2022/11/25 09:58:29;;;;;;;10.00;4.72;;;;;;;;;;5024980;28;20417;-72
2022/11/25 10:00:56;;;;;;;14.10;5.20;;;;;;;;;;5027365;28;20564;-75
2022/11/25 10:03:32;;;;;;;8.30;4.20;;;;;;;;;;5025945;28;20473;-75
2022/11/25 10:06:01;;;;;;;10.77;4.68;;;;;;;;;;5010195;28;20550;-76
2022/11/25 10:08:29;;;;;;;10.98;4.35;;;;;;;;;;5018323;28;20472;-73
2022/11/25 10:10:59;;;;;;;10.17;4.10;;;;;;;;;;5023512;28;20536;-74
2022/11/25 10:13:33;;;;;;;11.38;3.92;;;;;;;;;;5027088;28;20501;-73
2022/11/25 10:16:01;;;;;;;11.32;4.70;;;;;;;;;;5026924;28;20434;-73
2022/11/25 10:18:31;;;;;;;9.45;4.22;;;;;;;;;;5013443;28;20407;-75
2022/11/25 10:20:57;;;;;;;11.52;4.38;;;;;;;;;;5009783;28;20560;-74
2022/11/25 10:23:23;;;;;;;13.10;4.22;;;;;;;;;;5006243;28;20431;-74
2022/11/25 10:25:52;;;;;;;13.63;3.65;;;;;;;;;;5010118;28;20417;-74
2022/11/25 10:28:22;;;;;;;14.65;3.55;;;10.40;99.90;;;;;;5048611;28;20417;-75
2022/11/25 10:30:50;;;;;;;12.93;3.90;;;;;;;;;;5020330;28;20596;-74
2022/11/25 10:33:19;;;;;;;10.60;3.58;;;;;;;;;;5032704;28;20425;-74
2022/11/25 10:36:00;;;;;;;9.40;3.60;;;;;;;;;;5032301;28;20429;-74
2022/11/25 10:38:29;;;;;;;9.95;3.50;;;;;;;;;;5047324;28;20436;-74
2022/11/25 10:40:55;;;;;;;9.30;3.65;;;;;;;;;;5040297;28;20932;-74
2022/11/25 10:43:22;;;;;;;9.50;4.18;;;;;;;;;;5029532;28;20963;-74
2022/11/25 10:46:04;;;;;;;10.40;3.27;;;10.90;99.90;;;;;;5037759;28;20437;-74
2022/11/25 10:48:33;;;;;;;10.85;3.75;;;;;;;;;;5032144;28;20419;-74
2022/11/25 10:51:14;;;;;;;11.13;3.40;;;;;;;;;;5034551;28;20760;-75
2022/11/25 10:53:40;;;;;;;10.38;3.55;;;;;;;;;;5036499;28;20440;-74
2022/11/25 10:56:11;;;;;;;10.30;3.55;;;;;;;;;;4996843;28;20442;-75
2022/11/25 10:58:39;;;;;;;9.98;3.28;;;11.00;99.90;;;;;;5041350;28;20420;-75
2022/11/25 11:01:14;;;;;;;9.52;3.38;;;;;;;;;;5037961;28;20508;-74
2022/11/25 11:03:42;;;;;;;12.00;3.60;;;;;;;;;;5042266;28;20423;-75
2022/11/25 11:06:27;;;;;;;10.00;3.13;;;;;;;;;;5043148;28;20421;-74
2022/11/25 11:08:53;;;;;;;9.57;3.20;;;;;;;;;;5046925;28;20929;-74
2022/11/25 11:11:23;;;;;;;12.63;3.67;;;;;;;;;;5030433;28;20422;-74
2022/11/25 11:13:56;;;;;;;12.27;3.60;;;;;;;;;;5035406;28;20432;-74
2022/11/25 11:16:25;;;;;;;13.23;3.90;;;;;;;;;;5044739;28;20923;-74
2022/11/25 11:18:52;;;;;;;8.77;3.40;;;;;;;;;;5046724;28;20543;-74
2022/11/25 11:21:40;;;;;;;11.50;3.60;;;;;;;;;;5047877;28;20417;-74
2022/11/25 11:24:24;;;;;;;11.73;3.40;;;;;;;;;;5036712;28;20464;-74
2022/11/25 11:27:20;;;;;;;12.07;4.00;;;11.30;99.90;;;;;;5023852;28;20424;-74
2022/11/25 11:29:47;;;;;;;12.65;3.97;;;;;;;;;;5025489;28;20416;-74
2022/11/25 11:32:21;;;;;;;14.82;3.70;;;;;;;;;;5011846;28;20458;-74
2022/11/25 11:34:47;;;;;;;11.88;3.50;;;;;;;;;;5006773;28;20752;-75
2022/11/25 11:37:22;;;;;;;10.73;3.28;;;;;;;;;;5025512;28;21018;-73
2022/11/25 11:39:58;;;;;;;17.33;3.53;;;;;;;;;;5029048;28;20429;-73
2022/11/25 11:42:24;;;;;;;14.98;3.58;;;;;;;;;;5024879;28;20899;-73
2022/11/25 11:44:50;;;;;;;11.73;3.10;;;;;;;;;;5012788;28;20505;-73
2022/11/25 11:47:27;;;;;;;10.20;3.20;;;11.90;99.90;;;;;;5026619;28;20430;-73
2022/11/25 11:50:16;;;;;;;11.52;2.72;;;;;;;;;;5025086;28;22120;-73
2022/11/25 11:52:48;;;;;;;13.05;2.78;;;;;;;;;;5007941;28;20436;-73
2022/11/25 11:55:14;;;;;;;11.80;2.92;;;;;;;;;;5020155;28;20427;-74
2022/11/25 11:57:49;;;;;;;11.90;3.05;;;;;;;;;;5021301;28;20433;-73
2022/11/25 12:00:17;;;;;;;11.10;2.72;;;11.90;99.90;;;;;;5025959;28;20422;-73
2022/11/25 12:02:43;;;;;;;12.18;3.00;;;;;;;;;;5022745;28;20430;-73
2022/11/25 12:05:09;;;;;;;13.00;2.72;;;;;;;;;;5028726;28;20420;-72
2022/11/25 12:08:12;;;;;;;14.95;3.10;;;11.90;99.90;;;;;;5031506;28;20426;-72
2022/11/25 12:10:47;;;;;;;10.85;2.40;;;12.50;99.90;;;;;;5030150;28;20419;-72
2022/11/25 12:13:50;;;;;;;17.73;4.07;;;12.30;99.90;;;;;;5029054;28;20533;-72
2022/11/25 12:16:22;;;;;;;12.10;3.05;;;;;;;;;;5011261;28;20528;-72
2022/11/25 12:19:01;;;;;;;11.82;3.15;;;12.10;99.90;;;;;;5019759;28;20951;-73
2022/11/25 12:21:30;;;;;;;13.95;3.00;;;;;;;;;;5031578;28;20767;-73
2022/11/25 12:24:05;;;;;;;12.85;3.22;;;;;;;;;;5026690;28;20433;-73
2022/11/25 12:26:45;;;;;;;12.95;3.08;;;12.00;99.90;;;;;;5039397;28;20430;-73
2022/11/25 12:29:26;;;;;;;13.10;3.30;;;11.40;99.90;;;;;;5051118;28;20440;-73
2022/11/25 12:32:12;;;;;;;11.30;2.93;;;;;;;;;;5051098;28;20421;-73
2022/11/25 12:34:43;;;;;;;11.65;3.10;;;;;;;;;;5007455;28;20453;-73
2022/11/25 12:37:33;;;;;;;18.40;3.17;;;12.10;99.90;;;;;;5047953;28;21014;-73
2022/11/25 12:40:14;;;;;;;13.38;3.10;;;11.90;99.90;;;;;;5034497;28;20467;-73
2022/11/25 12:42:42;;;;;;;12.82;3.20;;;11.80;99.90;;;;;;5030783;28;20421;-73
2022/11/25 12:45:17;;;;;;;14.20;3.30;;;11.70;99.90;;;;;;5038662;28;20932;-73
2022/11/25 12:47:44;;;;;;;17.48;3.63;;;11.90;99.90;;;;;;5048417;28;20459;-74
2022/11/25 12:50:14;;;;;;;14.45;3.38;;;;;;;;;;5041290;28;20767;-81
2022/11/25 12:52:51;;;;;;;16.13;2.90;;;11.50;99.90;;;;;;5022815;28;20425;-83
2022/11/25 12:55:18;;;;;;;14.00;3.42;;;;;;;;;;5041165;28;20942;-82
2022/11/25 12:57:47;;;;;;;18.80;3.83;;;;;;;;;;5033052;28;20425;-82
2022/11/25 13:00:21;;;;;;;18.48;3.40;;;;;;;;;;5050248;28;20455;-74
2022/11/25 13:02:59;;;;;;;14.25;3.13;;;;;;;;;;5046887;28;20453;-73
2022/11/25 13:05:44;;;;;;;16.88;3.17;;;;;;;;;;5016055;28;20549;-73
2022/11/25 13:08:28;;;;;;;19.63;3.85;;;11.70;99.90;;;;;;5047905;28;20429;-72
2022/11/25 13:11:11;;;;;;;14.43;3.60;;;;;;;;;;5019794;28;20527;-73
2022/11/25 13:13:58;;;;;;;16.60;3.95;;;;;;;;;;5042178;28;20432;-73
2022/11/25 13:16:24;;;;;;;15.20;3.17;;;;;;;;;;5045423;28;20508;-73
2022/11/25 13:18:51;;;;;;;14.32;3.65;;;;;;;;;;5033504;28;20430;-73
2022/11/25 13:21:18;;;;;;;16.47;3.60;;;;;;;;;;5026081;28;20447;-74
2022/11/25 13:23:46;;;;;;;17.08;3.75;;;;;;;;;;5034701;28;20436;-73
2022/11/25 13:26:32;;;;;;;16.00;3.30;;;;;;;;;;5034286;28;20446;-74
2022/11/25 13:29:14;;;;;;;17.77;3.63;;;;;;;;;;5033177;28;20947;-74
2022/11/25 13:32:00;;;;;;;17.17;3.50;;;12.00;99.90;;;;;;5031150;28;20924;-74
2022/11/25 13:34:28;;;;;;;17.60;3.42;;;;;;;;;;5046567;28;20474;-74
2022/11/25 13:36:56;;;;;;;13.18;3.38;;;11.70;99.90;;;;;;5050019;28;20478;-73
2022/11/25 13:39:30;;;;;;;15.75;3.45;;;;;;;;;;5050749;28;20734;-73
2022/11/25 13:42:23;;;;;;;16.27;3.05;;;11.40;99.90;;;;;;5043784;28;20423;-72
2022/11/25 13:44:57;;;;;;;17.70;3.35;;;11.40;99.90;;;;;;5033322;28;20425;-72
2022/11/25 13:47:36;;;;;;;15.48;3.38;;;;;;;;;;5049977;28;20999;-73
2022/11/25 13:50:04;;;;;;;15.65;3.60;;;;;;;;;;5046775;28;20407;-73
2022/11/25 13:52:33;;;;;;;16.20;3.13;;;;;;;;;;5036257;28;20439;-80
2022/11/25 13:55:01;;;;;;;18.23;4.18;;;11.20;99.90;;;;;;5068273;28;20432;-81
2022/11/25 13:57:29;;;;;;;15.30;3.00;;;;;;;;;;5064473;28;20912;-82
2022/11/25 14:00:09;;;;;;;15.38;4.20;;;11.10;99.90;;;;;;5043153;28;20429;-82
2022/11/25 14:02:43;;;;;;;17.60;3.25;;;;;;;;;;5037829;28;20501;-81
2022/11/25 14:05:19;;;;;;;16.58;3.53;;;;;;;;;;5037893;28;20462;-81
2022/11/25 14:07:51;;;;;;;14.88;3.42;;;;;;;;;;5048418;28;20558;-81
2022/11/25 14:10:26;;;;;;;16.08;3.25;;;;;;;;;;5070242;28;20422;-81
2022/11/25 14:13:19;;;;;;;14.25;3.75;;;11.20;99.90;;;;;;5058032;28;20419;-82
2022/11/25 14:15:57;;;;;;;15.48;3.17;;;;;;;;;;5037910;28;20421;-81
2022/11/25 14:18:50;;;;;;;15.93;3.70;;;11.20;99.90;;;;;;5043749;28;20929;-82
2022/11/25 14:21:35;;;;;;;17.88;3.20;;;;;;;;;;5048509;28;20475;-81
2022/11/25 14:24:11;;;;;;;18.15;3.25;;;;;;;;;;5050698;28;20499;-80
2022/11/25 14:26:39;;;;;;;16.55;3.88;;;;;;;;;;5034548;28;20775;-83
2022/11/25 14:29:27;;;;;;;18.25;3.08;;;;;;;;;;5009497;28;20481;-83
2022/11/25 14:31:59;;;;;;;15.33;3.97;;;11.20;99.90;;;;;;5011169;28;20487;-82
2022/11/25 14:34:29;;;;;;;15.00;3.65;;;;;;;;;;5010966;28;20433;-82
2022/11/25 14:36:59;;;;;;;14.40;3.47;;;;;;;;;;5007122;28;20431;-80
2022/11/25 14:39:34;;;;;;;15.48;3.20;;;;;;;;;;5010336;28;20473;-81